createdAt,value
2022-12-08T00:00:49.682Z,64.90
2022-12-08T00:03:16.355Z,64.90
2022-12-08T00:06:06.991Z,64.87
2022-12-08T00:08:52.604Z,64.62
2022-12-08T00:11:19.770Z,64.46
2022-12-08T00:13:46.236Z,64.81
2022-12-08T00:16:13.026Z,64.52
2022-12-08T00:18:39.403Z,64.68
2022-12-08T00:21:06.033Z,64.80
2022-12-08T00:23:32.351Z,64.59
2022-12-08T00:26:03.186Z,64.59
2022-12-08T00:28:29.574Z,64.66
2022-12-08T00:30:55.898Z,64.86
2022-12-08T00:33:22.417Z,65.22
2022-12-08T00:35:48.782Z,65.32
2022-12-08T00:38:15.238Z,65.58
2022-12-08T00:40:45.887Z,65.46
2022-12-08T00:43:12.869Z,65.56
2022-12-08T00:45:39.291Z,65.92
2022-12-08T00:48:06.053Z,65.59
2022-12-08T00:50:32.770Z,65.83
2022-12-08T00:52:59.117Z,65.79
2022-12-08T00:55:25.479Z,65.83
2022-12-08T00:57:51.815Z,66.12
2022-12-08T01:00:18.571Z,66.18
2022-12-08T01:02:44.862Z,66.03
2022-12-08T01:05:11.178Z,66.50
2022-12-08T01:07:37.588Z,66.31
2022-12-08T01:10:04.728Z,66.40
2022-12-08T01:12:31.310Z,66.25
2022-12-08T01:15:02.097Z,66.28
2022-12-08T01:17:28.927Z,65.66
2022-12-08T01:19:55.288Z,65.66
2022-12-08T01:22:21.598Z,65.54
2022-12-08T01:24:47.966Z,65.01
2022-12-08T01:27:15.748Z,64.93
2022-12-08T01:29:42.100Z,65.18
2022-12-08T01:32:09.199Z,65.24
2022-12-08T01:34:35.539Z,65.61
2022-12-08T01:37:01.842Z,65.87
2022-12-08T01:39:28.179Z,65.76
2022-12-08T01:41:54.551Z,66.03
2022-12-08T01:44:20.819Z,66.33
2022-12-08T01:46:48.729Z,66.41
2022-12-08T01:49:26.849Z,66.67
2022-12-08T01:52:16.210Z,66.59
2022-12-08T01:55:06.619Z,66.85
2022-12-08T01:57:47.776Z,66.88
2022-12-08T02:00:17.268Z,66.77
2022-12-08T02:03:19.098Z,66.81
2022-12-08T02:05:46.955Z,66.91
2022-12-08T02:08:14.165Z,66.98
2022-12-08T02:10:42.652Z,66.73
2022-12-08T02:13:13.701Z,67.12
2022-12-08T02:16:24.717Z,66.82
2022-12-08T02:19:35.580Z,66.64
2022-12-08T02:22:14.154Z,66.73
2022-12-08T02:24:50.389Z,66.49
2022-12-08T02:27:28.017Z,66.54
2022-12-08T02:30:15.759Z,66.53
2022-12-08T02:33:21.899Z,66.87
2022-12-08T02:35:57.692Z,66.32
2022-12-08T02:38:42.405Z,66.46
2022-12-08T02:41:18.799Z,66.15
2022-12-08T02:43:49.998Z,66.49
2022-12-08T02:46:24.909Z,66.65
2022-12-08T02:48:52.450Z,66.43
2022-12-08T02:51:19.829Z,66.89
2022-12-08T02:53:47.017Z,66.84
2022-12-08T02:56:35.493Z,66.40
2022-12-08T02:59:09.269Z,66.54
2022-12-08T03:01:58.935Z,66.71
2022-12-08T03:04:43.877Z,66.59
2022-12-08T03:07:19.324Z,66.71
2022-12-08T03:09:58.448Z,66.69
2022-12-08T03:12:24.718Z,66.48
2022-12-08T03:14:55.718Z,66.46
2022-12-08T03:17:26.157Z,66.59
2022-12-08T03:19:54.346Z,66.46
2022-12-08T03:22:23.919Z,66.85
2022-12-08T03:24:51.355Z,66.70
2022-12-08T03:27:20.886Z,66.76
2022-12-08T03:29:49.059Z,66.90
2022-12-08T03:32:53.906Z,66.68
2022-12-08T03:35:24.653Z,66.81
2022-12-08T03:37:51.054Z,66.84
2022-12-08T03:40:20.411Z,66.79
2022-12-08T03:42:46.791Z,66.75
2022-12-08T03:45:13.152Z,67.07
2022-12-08T03:47:39.755Z,66.63
2022-12-08T03:50:06.855Z,67.12
2022-12-08T03:52:33.562Z,67.02
2022-12-08T03:54:59.882Z,67.01
2022-12-08T03:57:26.250Z,66.74
2022-12-08T03:59:52.577Z,67.24
2022-12-08T04:02:19.006Z,66.93
2022-12-08T04:04:45.450Z,67.00
2022-12-08T04:07:11.776Z,67.06
2022-12-08T04:09:39.011Z,66.89
2022-12-08T04:12:05.605Z,67.13
2022-12-08T04:14:31.899Z,67.00
2022-12-08T04:16:58.251Z,67.29
2022-12-08T04:19:24.637Z,67.09
2022-12-08T04:21:51.093Z,67.22
2022-12-08T04:24:17.393Z,66.93
2022-12-08T04:26:43.776Z,67.26
2022-12-08T04:29:10.111Z,67.32
2022-12-08T04:31:36.507Z,67.37
2022-12-08T04:34:03.031Z,67.44
2022-12-08T04:36:29.598Z,67.05
2022-12-08T04:38:55.923Z,67.38
2022-12-08T04:41:22.227Z,67.31
2022-12-08T04:43:48.825Z,67.35
2022-12-08T04:46:15.219Z,67.52
2022-12-08T04:48:41.628Z,67.45
2022-12-08T04:51:15.420Z,67.29
2022-12-08T04:53:46.255Z,67.24
2022-12-08T04:56:18.836Z,67.24
2022-12-08T04:58:45.586Z,67.37
2022-12-08T05:01:12.728Z,67.35
2022-12-08T05:03:39.181Z,67.22
2022-12-08T05:06:05.766Z,67.58
2022-12-08T05:08:32.317Z,67.21
2022-12-08T05:11:07.109Z,67.32
2022-12-08T05:13:33.496Z,67.18
2022-12-08T05:16:09.286Z,67.15
2022-12-08T05:18:36.096Z,67.13
2022-12-08T05:21:02.977Z,67.44
2022-12-08T05:23:29.613Z,67.27
2022-12-08T05:25:55.940Z,67.18
2022-12-08T05:31:09.583Z,66.94
2022-12-08T05:33:36.000Z,67.40
2022-12-08T05:36:02.357Z,67.38
2022-12-08T05:38:29.382Z,67.03
2022-12-08T05:40:55.682Z,67.20
2022-12-08T05:43:22.023Z,67.45
2022-12-08T05:45:48.723Z,67.03
2022-12-08T05:48:15.143Z,67.76
2022-12-08T05:50:47.273Z,67.45
2022-12-08T05:53:14.497Z,67.64
2022-12-08T05:55:40.898Z,67.69
2022-12-08T05:58:14.299Z,67.41
2022-12-08T06:00:41.212Z,67.45
2022-12-08T06:03:07.808Z,67.22
2022-12-08T06:05:35.005Z,67.27
2022-12-08T06:08:01.955Z,67.59
2022-12-08T06:10:28.623Z,67.33
2022-12-08T06:12:55.021Z,67.45
2022-12-08T06:15:21.388Z,67.42
2022-12-08T06:17:47.722Z,67.29
2022-12-08T06:20:14.040Z,66.82
2022-12-08T06:22:40.376Z,66.90
2022-12-08T06:25:09.832Z,66.95
2022-12-08T06:27:36.650Z,67.32
2022-12-08T06:30:03.655Z,67.20
2022-12-08T06:32:30.435Z,67.18
2022-12-08T06:34:56.830Z,67.19
2022-12-08T06:37:23.166Z,67.21
2022-12-08T06:39:49.486Z,67.24
2022-12-08T06:42:34.255Z,67.17
2022-12-08T06:45:00.681Z,66.98
2022-12-08T06:47:27.048Z,67.21
2022-12-08T06:49:53.476Z,67.02
2022-12-08T06:52:19.931Z,67.11
2022-12-08T06:54:46.239Z,67.26
2022-12-08T06:57:12.634Z,66.96
2022-12-08T06:59:39.758Z,67.32
2022-12-08T07:02:06.837Z,67.44
2022-12-08T07:04:33.293Z,67.42
2022-12-08T07:06:59.619Z,67.13
2022-12-08T07:09:25.998Z,67.70
2022-12-08T07:11:53.357Z,67.24
2022-12-08T07:14:23.524Z,67.35
2022-12-08T07:16:50.383Z,67.64
2022-12-08T07:19:17.020Z,67.67
2022-12-08T07:21:43.354Z,67.41
2022-12-08T07:24:09.841Z,67.65
2022-12-08T07:26:36.151Z,67.48
2022-12-08T07:29:02.543Z,67.40
2022-12-08T07:31:29.133Z,67.34
2022-12-08T07:33:56.817Z,67.11
2022-12-08T07:36:23.937Z,67.26
2022-12-08T07:38:53.025Z,67.31
2022-12-08T07:41:23.653Z,67.42
2022-12-08T07:43:50.969Z,67.29
2022-12-08T07:46:20.403Z,67.48
2022-12-08T07:48:47.536Z,67.19
2022-12-08T07:51:15.800Z,66.95
2022-12-08T07:53:53.148Z,67.20
2022-12-08T07:56:21.207Z,67.29
2022-12-08T07:58:47.588Z,67.44
2022-12-08T08:01:25.838Z,67.19
2022-12-08T08:03:53.117Z,67.07
2022-12-08T08:06:19.520Z,67.08
2022-12-08T08:08:46.126Z,67.45
2022-12-08T08:11:18.983Z,67.15
2022-12-08T08:13:47.100Z,67.17
2022-12-08T08:16:13.735Z,67.42
2022-12-08T08:18:40.742Z,67.17
2022-12-08T08:21:43.272Z,66.95
2022-12-08T08:23:53.564Z,67.36
2022-12-08T08:26:19.917Z,67.29
2022-12-08T08:28:46.236Z,67.10
2022-12-08T08:31:12.769Z,67.27
2022-12-08T08:33:39.188Z,66.99
2022-12-08T08:36:09.563Z,67.24
2022-12-08T08:38:39.976Z,67.03
2022-12-08T08:41:10.918Z,67.12
2022-12-08T08:43:38.767Z,67.01
2022-12-08T08:46:06.752Z,67.09
2022-12-08T08:48:33.304Z,67.43
2022-12-08T08:51:08.344Z,67.17
2022-12-08T08:53:34.669Z,67.19
2022-12-08T08:56:02.793Z,67.59
2022-12-08T08:58:29.561Z,67.04
2022-12-08T09:00:56.332Z,67.10
2022-12-08T09:03:22.764Z,67.37
2022-12-08T09:05:50.263Z,67.41
2022-12-08T09:08:16.658Z,67.28
2022-12-08T09:10:43.052Z,67.22
2022-12-08T09:13:09.360Z,66.73
2022-12-08T09:15:35.721Z,66.91
2022-12-08T09:18:02.117Z,67.13
2022-12-08T09:20:28.434Z,67.00
2022-12-08T09:22:54.747Z,67.19
2022-12-08T09:25:21.073Z,67.23
2022-12-08T09:27:47.397Z,67.20
2022-12-08T09:30:14.586Z,66.92
2022-12-08T09:32:40.978Z,66.42
2022-12-08T09:35:07.779Z,66.71
2022-12-08T09:37:34.167Z,66.58
2022-12-08T09:40:00.630Z,66.41
2022-12-08T09:42:42.973Z,66.27
2022-12-08T09:45:12.767Z,66.69
2022-12-08T09:47:43.485Z,66.04
2022-12-08T09:50:09.727Z,66.07
2022-12-08T09:52:52.265Z,66.16
2022-12-08T09:55:58.380Z,66.17
2022-12-08T09:58:32.345Z,66.44
2022-12-08T10:00:58.875Z,66.10
2022-12-08T10:03:29.271Z,66.12
2022-12-08T10:06:21.370Z,65.72
2022-12-08T10:08:58.814Z,65.90
2022-12-08T10:11:36.438Z,65.67
2022-12-08T10:14:04.015Z,65.60
2022-12-08T10:16:38.280Z,66.18
2022-12-08T10:19:17.363Z,66.40
2022-12-08T10:21:44.183Z,66.13
2022-12-08T10:24:25.963Z,65.87
2022-12-08T10:26:53.606Z,65.82
2022-12-08T10:29:19.970Z,66.11
2022-12-08T10:31:46.415Z,65.87
2022-12-08T10:34:15.558Z,65.86
2022-12-08T10:36:44.950Z,65.69
2022-12-08T10:39:46.899Z,65.24
2022-12-08T10:42:21.886Z,65.70
2022-12-08T10:44:57.277Z,65.43
2022-12-08T10:47:26.698Z,65.20
2022-12-08T10:50:23.013Z,65.58
2022-12-08T10:53:17.291Z,65.52
2022-12-08T10:55:50.143Z,64.72
2022-12-08T10:58:36.332Z,64.82
2022-12-08T11:01:05.536Z,64.84
2022-12-08T11:03:43.652Z,64.56
2022-12-08T11:06:26.777Z,65.21
2022-12-08T11:08:56.057Z,64.59
2022-12-08T11:11:37.269Z,64.57
2022-12-08T11:14:07.905Z,64.61
2022-12-08T11:16:35.161Z,64.39
2022-12-08T11:19:06.613Z,64.41
2022-12-08T11:21:37.495Z,63.99
2022-12-08T11:24:17.853Z,64.19
2022-12-08T11:27:15.089Z,64.74
2022-12-08T11:29:41.782Z,64.72
2022-12-08T11:32:12.906Z,64.53
2022-12-08T11:34:53.159Z,64.44
2022-12-08T11:37:34.892Z,64.16
2022-12-08T11:40:24.935Z,64.47
2022-12-08T11:43:20.294Z,64.37
2022-12-08T11:45:52.797Z,63.91
2022-12-08T11:48:50.262Z,63.78
2022-12-08T11:51:30.386Z,64.35
2022-12-08T11:54:16.681Z,63.82
2022-12-08T11:56:45.680Z,63.82
2022-12-08T11:59:32.802Z,63.83
2022-12-08T12:02:05.077Z,63.75
2022-12-08T12:04:31.437Z,63.45
2022-12-08T12:07:18.559Z,63.50
2022-12-08T12:10:00.361Z,63.67
2022-12-08T12:13:00.603Z,63.07
2022-12-08T12:16:07.103Z,63.41
2022-12-08T12:18:41.060Z,63.46
2022-12-08T12:21:26.353Z,63.47
2022-12-08T12:23:59.497Z,63.73
2022-12-08T12:26:29.619Z,63.65
2022-12-08T12:29:02.484Z,63.10
2022-12-08T12:31:33.554Z,63.03
2022-12-08T12:34:23.858Z,62.85
2022-12-08T12:36:54.354Z,63.34
2022-12-08T12:39:24.952Z,63.15
2022-12-08T12:41:55.062Z,63.16
2022-12-08T12:44:33.346Z,63.08
2022-12-08T12:47:02.057Z,62.92
2022-12-08T12:49:40.823Z,63.14
2022-12-08T12:52:09.983Z,63.00
2022-12-08T12:54:36.329Z,63.04
2022-12-08T12:57:05.633Z,63.32
2022-12-08T12:59:42.604Z,63.18
2022-12-08T13:02:22.634Z,62.76
2022-12-08T13:05:02.244Z,62.94
2022-12-08T13:07:33.072Z,62.92
2022-12-08T13:10:17.581Z,62.96
2022-12-08T13:12:45.777Z,62.92
2022-12-08T13:15:20.150Z,62.75
2022-12-08T13:17:49.106Z,63.08
2022-12-08T13:20:21.870Z,62.66
2022-12-08T13:23:13.390Z,62.82
2022-12-08T13:25:39.801Z,62.57
2022-12-08T13:28:17.403Z,62.30
2022-12-08T13:30:55.322Z,62.42
2022-12-08T13:33:28.990Z,62.38
2022-12-08T13:36:04.831Z,62.54
2022-12-08T13:38:32.169Z,62.55
2022-12-08T13:41:02.961Z,62.83
2022-12-08T13:44:10.200Z,62.51
2022-12-08T13:47:09.908Z,62.60
2022-12-08T13:58:47.230Z,62.50
2022-12-08T14:01:16.795Z,62.46
2022-12-08T14:04:31.011Z,62.46
2022-12-08T14:06:46.328Z,62.87
2022-12-08T14:09:20.949Z,62.69
2022-12-08T14:11:54.500Z,62.57
2022-12-08T14:15:01.734Z,63.04
2022-12-08T14:17:26.466Z,62.58
2022-12-08T14:19:59.027Z,62.74
2022-12-08T14:22:31.799Z,62.38
2022-12-08T14:24:58.215Z,62.44
2022-12-08T14:27:26.952Z,62.84
2022-12-08T14:29:56.976Z,62.78
2022-12-08T14:32:32.631Z,62.93
2022-12-08T14:35:06.531Z,63.27
2022-12-08T14:37:46.188Z,63.27
2022-12-08T14:40:23.451Z,63.10
2022-12-08T14:42:53.797Z,63.33
2022-12-08T14:45:20.977Z,63.18
2022-12-08T14:47:48.523Z,63.05
2022-12-08T14:51:15.468Z,63.35
2022-12-08T14:54:09.502Z,63.06
2022-12-08T14:56:35.780Z,62.75
2022-12-08T14:59:08.036Z,62.96
2022-12-08T15:01:36.095Z,62.59
2022-12-08T15:04:24.558Z,62.62
2022-12-08T15:07:03.058Z,62.81
2022-12-08T15:09:38.323Z,62.74
2022-12-08T15:12:26.754Z,62.25
2022-12-08T15:14:55.129Z,62.11
2022-12-08T15:17:39.985Z,62.30
2022-12-08T15:20:34.611Z,61.97
2022-12-08T15:23:02.445Z,62.05
2022-12-08T15:25:28.837Z,61.61
2022-12-08T15:27:56.995Z,61.96
2022-12-08T15:30:26.418Z,61.74
2022-12-08T15:32:54.093Z,61.94
2022-12-08T15:35:20.946Z,61.68
2022-12-08T15:37:47.406Z,62.14
2022-12-08T15:40:20.284Z,61.89
2022-12-08T15:42:46.818Z,62.24
2022-12-08T15:45:14.443Z,62.19
2022-12-08T15:47:42.205Z,62.50
2022-12-08T15:50:17.308Z,62.37
2022-12-08T15:52:43.878Z,62.17
2022-12-08T15:55:18.547Z,62.38
2022-12-08T16:00:52.493Z,62.39
2022-12-08T16:04:13.775Z,62.68
2022-12-08T16:09:15.633Z,62.98
2022-12-08T16:12:09.916Z,63.05
2022-12-08T16:17:24.337Z,63.48
2022-12-08T16:19:50.876Z,63.04
2022-12-08T16:25:22.554Z,63.26
2022-12-08T16:28:08.375Z,63.07
2022-12-08T16:30:39.515Z,63.40
2022-12-08T16:33:06.281Z,63.03
2022-12-08T16:35:32.943Z,63.14
2022-12-08T16:37:59.401Z,63.19
2022-12-08T16:40:25.866Z,62.95
2022-12-08T16:42:52.387Z,62.61
2022-12-08T16:45:24.732Z,63.01
2022-12-08T16:47:59.366Z,63.22
2022-12-08T16:50:35.146Z,63.21
2022-12-08T16:53:09.051Z,63.45
2022-12-08T16:55:35.637Z,62.99
2022-12-08T16:58:03.439Z,63.51
2022-12-08T17:00:31.783Z,63.09
2022-12-08T17:02:58.812Z,63.13
2022-12-08T17:05:25.757Z,63.59
2022-12-08T17:07:53.528Z,63.38
2022-12-08T17:10:23.072Z,63.24
2022-12-08T17:12:50.300Z,62.78
2022-12-08T17:15:21.099Z,63.23
2022-12-08T17:17:48.182Z,63.05
2022-12-08T17:20:18.350Z,63.53
2022-12-08T17:22:44.917Z,63.41
2022-12-08T17:25:13.601Z,63.02
2022-12-08T17:27:41.137Z,63.60
2022-12-08T17:30:09.645Z,63.07
2022-12-08T17:32:37.785Z,63.26
2022-12-08T17:35:04.911Z,63.14
2022-12-08T17:37:31.396Z,63.13
2022-12-08T17:39:57.728Z,63.30
2022-12-08T17:42:25.964Z,63.04
2022-12-08T17:44:53.166Z,62.87
2022-12-08T17:47:19.691Z,63.09
2022-12-08T17:49:46.101Z,63.03
2022-12-08T17:52:12.479Z,63.36
2022-12-08T17:54:39.082Z,63.22
2022-12-08T17:57:05.500Z,63.18
2022-12-08T17:59:32.791Z,63.31
2022-12-08T18:01:59.949Z,63.36
2022-12-08T18:04:28.583Z,63.04
2022-12-08T18:06:55.076Z,63.41
2022-12-08T18:09:21.577Z,63.17
2022-12-08T18:11:47.937Z,62.53
2022-12-08T18:14:14.758Z,62.61
2022-12-08T18:16:44.399Z,62.69
2022-12-08T18:19:12.473Z,62.80
2022-12-08T18:21:39.514Z,63.12
2022-12-08T18:24:06.945Z,63.32
2022-12-08T18:26:33.588Z,63.08
2022-12-08T18:29:00.268Z,62.98
2022-12-08T18:31:27.091Z,63.15
2022-12-08T18:33:53.749Z,62.62
2022-12-08T18:36:22.854Z,62.82
2022-12-08T18:38:49.780Z,62.58
2022-12-08T18:41:19.526Z,62.45
2022-12-08T18:43:46.621Z,62.35
2022-12-08T18:46:14.825Z,63.08
2022-12-08T18:48:47.191Z,62.40
2022-12-08T18:51:16.715Z,62.65
2022-12-08T18:53:44.480Z,62.44
2022-12-08T18:56:30.823Z,62.56
2022-12-08T18:59:03.214Z,62.43
2022-12-08T19:01:31.472Z,62.74
2022-12-08T19:06:49.777Z,63.03
2022-12-08T19:09:16.607Z,63.00
2022-12-08T19:11:43.942Z,63.04
2022-12-08T19:14:11.104Z,63.51
2022-12-08T19:16:37.665Z,63.41
2022-12-08T19:19:04.637Z,63.17
2022-12-08T19:21:31.616Z,63.02
2022-12-08T19:23:58.541Z,63.24
2022-12-08T19:26:26.302Z,63.37
2022-12-08T19:28:52.712Z,63.06
2022-12-08T19:31:19.144Z,63.04
2022-12-08T19:33:45.529Z,62.84
2022-12-08T19:36:15.440Z,62.83
2022-12-08T19:39:01.179Z,62.77
2022-12-08T19:41:46.611Z,63.07
2022-12-08T19:44:40.177Z,62.60
2022-12-08T19:47:06.701Z,62.77
2022-12-08T19:49:33.229Z,62.90
2022-12-08T19:51:59.613Z,63.28
2022-12-08T19:54:26.528Z,63.35
2022-12-08T19:56:52.965Z,63.47
2022-12-08T19:59:20.302Z,63.41
2022-12-08T20:01:48.469Z,63.87
2022-12-08T20:04:16.423Z,64.00
2022-12-08T20:06:43.860Z,63.32
2022-12-08T20:09:11.869Z,63.52
2022-12-08T20:11:39.260Z,63.42
2022-12-08T20:14:06.079Z,63.39
2022-12-08T20:16:32.840Z,63.18
2022-12-08T20:18:59.945Z,63.31
2022-12-08T20:21:26.346Z,62.79
2022-12-08T20:23:52.766Z,62.64
2022-12-08T20:26:22.426Z,62.68
2022-12-08T20:28:49.116Z,62.93
2022-12-08T20:31:20.388Z,63.07
2022-12-08T20:33:47.260Z,63.02
2022-12-08T20:36:18.065Z,63.30
2022-12-08T20:38:45.947Z,63.50
2022-12-08T20:41:12.321Z,63.44
2022-12-08T20:43:38.694Z,63.71
2022-12-08T20:46:07.023Z,64.26
2022-12-08T20:48:36.127Z,64.69
2022-12-08T20:51:03.084Z,65.15
2022-12-08T20:53:30.401Z,64.98
2022-12-08T20:55:56.887Z,65.33
2022-12-08T21:01:29.770Z,64.90
2022-12-08T21:03:56.310Z,65.19
2022-12-08T21:06:26.761Z,64.87
2022-12-08T21:08:54.018Z,64.81
2022-12-08T21:11:20.561Z,65.05
2022-12-08T21:13:47.285Z,65.00
2022-12-08T21:16:15.389Z,65.44
2022-12-08T21:18:44.899Z,65.55
2022-12-08T21:21:14.292Z,65.42
2022-12-08T21:23:44.123Z,64.99
2022-12-08T21:26:23.396Z,64.85
2022-12-08T21:28:50.073Z,64.98
2022-12-08T21:31:19.237Z,65.21
2022-12-08T21:33:45.902Z,65.11
2022-12-08T21:36:14.953Z,65.24
2022-12-08T21:38:42.613Z,64.95
2022-12-08T21:41:12.931Z,65.15
2022-12-08T21:43:40.106Z,65.20
2022-12-08T21:46:06.704Z,65.32
2022-12-08T21:48:33.499Z,65.56
2022-12-08T21:51:31.109Z,65.29
2022-12-08T21:53:57.645Z,65.65
2022-12-08T21:56:24.216Z,65.47
2022-12-08T21:58:50.706Z,65.65
2022-12-08T22:01:17.407Z,65.88
2022-12-08T22:03:44.127Z,65.50
2022-12-08T22:06:13.197Z,65.72
2022-12-08T22:08:42.027Z,65.34
2022-12-08T22:11:10.649Z,65.64
2022-12-08T22:13:39.225Z,65.40
2022-12-08T22:16:08.615Z,65.66
2022-12-08T22:18:36.139Z,65.64
2022-12-08T22:21:08.769Z,65.49
2022-12-08T22:23:35.071Z,65.63
2022-12-08T22:26:02.942Z,65.51
2022-12-08T22:28:32.731Z,65.30
2022-12-08T22:30:59.147Z,65.62
2022-12-08T22:33:25.650Z,65.28
2022-12-08T22:36:04.735Z,65.21
2022-12-08T22:38:34.712Z,65.37
2022-12-08T22:41:03.592Z,65.67
2022-12-08T22:43:31.275Z,65.45
2022-12-08T22:45:57.672Z,65.92
2022-12-08T22:48:25.067Z,65.76
2022-12-08T22:50:51.448Z,65.46
2022-12-08T22:53:17.870Z,65.73
2022-12-08T22:55:44.760Z,65.39
2022-12-08T22:58:11.413Z,65.25
2022-12-08T23:00:38.553Z,65.36
2022-12-08T23:03:06.382Z,65.54
2022-12-08T23:05:34.555Z,66.15
2022-12-08T23:08:01.348Z,65.58
2022-12-08T23:10:28.373Z,65.77
2022-12-08T23:12:56.885Z,65.60
2022-12-08T23:15:27.679Z,65.82
2022-12-08T23:17:54.402Z,66.00
2022-12-08T23:20:20.832Z,65.93
2022-12-08T23:22:47.238Z,65.82
2022-12-08T23:25:14.334Z,65.79
2022-12-08T23:27:40.725Z,65.88
2022-12-08T23:30:08.374Z,65.89
2022-12-08T23:32:34.904Z,65.82
2022-12-08T23:35:01.634Z,65.97
2022-12-08T23:37:29.098Z,66.04
2022-12-08T23:39:55.702Z,65.72
2022-12-08T23:42:22.130Z,65.85
2022-12-08T23:44:48.954Z,65.80
2022-12-08T23:47:15.374Z,66.03
2022-12-08T23:49:41.772Z,66.02
2022-12-08T23:52:12.821Z,65.68
2022-12-08T23:54:40.072Z,65.99
2022-12-08T23:57:07.351Z,65.93
2022-12-08T23:59:33.839Z,66.15
